Time;durP1;ratioP1;P1;durP2;ratioP2;P2;SDS_P1;SDS_P2;PMS_P1;PMS_P2;Temp;Humidity;BMP_temperature;BMP_pressure;BME280_temperature;BME280_humidity;BME280_pressure;Samples;Min_cycle;Max_cycle;Signal;HPM_P1;HPM_P2
2023/01/16 00:00:27;;;;;;;18.77;9.23;;;8.80;99.90;;;;;;5227724;28;20087;-69
2023/01/16 00:02:58;;;;;;;16.80;10.70;;;8.90;99.90;;;;;;5227597;28;20337;-69
2023/01/16 00:05:29;;;;;;;23.23;10.57;;;8.80;99.90;;;;;;5224164;28;20033;-70
2023/01/16 00:07:59;;;;;;;26.58;16.15;;;9.00;99.90;;;;;;5218132;28;20027;-73
2023/01/16 00:10:30;;;;;;;44.65;23.23;;;8.50;99.90;;;;;;5214541;28;20102;-70
2023/01/16 00:13:01;;;;;;;46.05;25.83;;;8.30;99.90;;;;;;5206618;28;20021;-70
2023/01/16 00:15:33;;;;;;;39.88;20.42;;;8.50;99.90;;;;;;5226091;28;20025;-71
2023/01/16 00:18:04;;;;;;;52.40;27.95;;;8.30;99.90;;;;;;5221921;28;20033;-69
2023/01/16 00:20:34;;;;;;;29.35;18.38;;;8.20;99.90;;;;;;5206444;28;20397;-69
2023/01/16 00:23:05;;;;;;;26.40;15.73;;;7.80;99.90;;;;;;5206391;28;20026;-70
2023/01/16 00:25:43;;;;;;;27.17;13.20;;;8.10;99.90;;;;;;5206409;28;20032;-69
2023/01/16 00:28:14;;;;;;;19.98;11.82;;;8.50;99.90;;;;;;5206657;28;20026;-70
2023/01/16 00:30:45;;;;;;;23.25;12.57;;;8.80;99.90;;;;;;5206533;28;20026;-70
2023/01/16 00:33:18;;;;;;;38.10;18.65;;;9.00;99.90;;;;;;5206647;28;20036;-70
2023/01/16 00:35:49;;;;;;;27.83;14.70;;;8.60;99.90;;;;;;5206152;28;20026;-70
2023/01/16 00:38:19;;;;;;;32.70;17.77;;;9.10;99.90;;;;;;5204897;28;20040;-69
2023/01/16 00:40:50;;;;;;;36.72;19.70;;;8.20;99.90;;;;;;5206117;28;20056;-69
2023/01/16 00:43:22;;;;;;;41.28;21.58;;;8.80;99.90;;;;;;5205970;28;20067;-71
2023/01/16 00:45:53;;;;;;;36.85;19.52;;;8.90;99.90;;;;;;5205754;28;20054;-73
2023/01/16 00:48:24;;;;;;;33.83;18.38;;;9.10;99.90;;;;;;5206034;28;20056;-70
2023/01/16 00:50:55;;;;;;;31.65;16.08;;;8.50;99.90;;;;;;5205840;28;20029;-72
2023/01/16 00:53:25;;;;;;;20.05;9.20;;;8.50;99.90;;;;;;5205786;28;20029;-71
2023/01/16 00:55:56;;;;;;;14.30;8.32;;;8.10;99.90;;;;;;5205969;28;20029;-69
2023/01/16 00:58:27;;;;;;;12.68;7.57;;;8.20;99.90;;;;;;5205910;28;20032;-69
2023/01/16 01:00:58;;;;;;;22.30;10.10;;;8.10;99.90;;;;;;5205804;28;20083;-69
2023/01/16 01:03:28;;;;;;;20.48;9.48;;;8.70;99.90;;;;;;5205666;28;20381;-69
2023/01/16 01:06:04;;;;;;;16.75;12.20;;;8.60;99.90;;;;;;5205797;28;20104;-70
2023/01/16 01:08:35;;;;;;;19.90;10.57;;;8.30;99.90;;;;;;5205830;28;20033;-69
2023/01/16 01:11:11;;;;;;;15.45;9.80;;;8.00;99.90;;;;;;5205713;28;20036;-69
2023/01/16 01:13:43;;;;;;;23.02;12.15;;;8.50;99.90;;;;;;5205826;28;20060;-69
2023/01/16 01:16:15;;;;;;;21.75;11.60;;;8.40;99.90;;;;;;5205782;28;20034;-69
2023/01/16 01:18:45;;;;;;;17.23;9.10;;;8.40;99.90;;;;;;5205682;28;20045;-70
2023/01/16 01:21:16;;;;;;;11.93;7.40;;;8.70;99.90;;;;;;5205526;28;20085;-76
2023/01/16 01:23:47;;;;;;;16.05;7.25;;;8.90;99.90;;;;;;5205511;28;20045;-70
2023/01/16 01:26:18;;;;;;;14.25;7.25;;;8.80;99.90;;;;;;5205465;28;20374;-69
2023/01/16 01:28:49;;;;;;;11.55;6.88;;;9.00;99.90;;;;;;5205496;28;20029;-69
2023/01/16 01:31:20;;;;;;;9.48;6.68;;;9.00;99.90;;;;;;5205295;28;20032;-70
2023/01/16 01:33:50;;;;;;;16.20;7.10;;;8.80;99.90;;;;;;5205278;28;20458;-69
2023/01/16 01:36:21;;;;;;;11.48;6.28;;;8.80;99.90;;;;;;5205397;28;20064;-69
2023/01/16 01:38:52;;;;;;;10.10;6.90;;;9.20;99.90;;;;;;5204021;28;20029;-70
2023/01/16 01:41:23;;;;;;;15.43;6.45;;;8.80;99.90;;;;;;5205173;28;20037;-70
2023/01/16 01:43:56;;;;;;;11.40;7.18;;;8.80;99.90;;;;;;5205171;28;20804;-69
2023/01/16 01:46:41;;;;;;;14.20;7.20;;;9.20;99.90;;;;;;5204548;28;20157;-69
2023/01/16 01:49:22;;;;;;;15.25;6.88;;;8.30;99.90;;;;;;5205312;28;20052;-69
2023/01/16 01:51:57;;;;;;;11.93;7.13;;;8.70;99.90;;;;;;5205515;28;20030;-70
2023/01/16 01:54:37;;;;;;;16.00;7.45;;;8.10;99.90;;;;;;5205142;28;20381;-69
2023/01/16 01:57:20;;;;;;;9.77;6.68;;;8.20;99.90;;;;;;5205185;28;20036;-76
2023/01/16 02:00:06;;;;;;;16.02;8.05;;;8.20;99.90;;;;;;5205102;28;20121;-70
2023/01/16 02:02:42;;;;;;;15.43;7.95;;;8.30;99.90;;;;;;5205281;28;20100;-69
2023/01/16 02:05:20;;;;;;;13.40;6.97;;;8.50;99.90;;;;;;5205434;28;20043;-69
2023/01/16 02:07:52;;;;;;;13.88;7.00;;;8.20;99.90;;;;;;5205096;28;20036;-79
2023/01/16 02:10:43;;;;;;;16.65;6.72;;;8.40;99.90;;;;;;5205054;28;20087;-69
2023/01/16 02:13:14;;;;;;;13.60;7.10;;;8.20;99.90;;;;;;5203678;28;20060;-69
2023/01/16 02:22:00;;;;;;;14.88;6.45;;;8.90;99.90;;;;;;5204948;28;20048;-71
2023/01/16 02:24:47;;;;;;;14.05;7.80;;;8.70;99.90;;;;;;5204752;28;20099;-69
2023/01/16 02:27:40;;;;;;;16.90;8.50;;;9.00;99.90;;;;;;5204710;28;20097;-69
2023/01/16 02:30:49;;;;;;;12.93;7.35;;;8.90;99.90;;;;;;5203471;28;20203;-71
2023/01/16 02:33:35;;;;;;;12.18;7.60;;;8.50;99.90;;;;;;5203514;28;20072;-69
2023/01/16 02:36:28;;;;;;;11.57;7.95;;;8.50;99.90;;;;;;5203855;28;20033;-74
2023/01/16 02:39:26;;;;;;;14.75;8.43;;;8.90;99.90;;;;;;5204802;28;20060;-69
2023/01/16 02:42:17;;;;;;;11.35;7.20;;;8.00;99.90;;;;;;5204618;28;20028;-69
2023/01/16 02:45:18;;;;;;;10.63;6.90;;;8.10;99.90;;;;;;5200450;28;20054;-69
2023/01/16 02:47:56;;;;;;;11.15;6.95;;;8.30;99.90;;;;;;5204732;28;20033;-69
2023/01/16 02:50:58;;;;;;;9.40;6.60;;;7.70;99.90;;;;;;5204514;28;20108;-70
2023/01/16 02:53:36;;;;;;;13.13;7.05;;;8.10;99.90;;;;;;5204582;28;20477;-70
2023/01/16 02:56:12;;;;;;;13.65;6.93;;;8.10;99.90;;;;;;5204601;28;20021;-73
2023/01/16 02:58:46;;;;;;;12.90;6.95;;;8.60;99.90;;;;;;5205070;28;20120;-70
2023/01/16 03:01:18;;;;;;;9.32;6.72;;;8.80;99.90;;;;;;5208226;28;20025;-70
2023/01/16 03:04:02;;;;;;;8.75;7.10;;;8.80;99.90;;;;;;5208142;28;20034;-74
2023/01/16 03:06:39;;;;;;;15.00;6.88;;;8.40;99.90;;;;;;5208111;28;20116;-69
2023/01/16 03:09:39;;;;;;;11.20;7.13;;;8.20;99.90;;;;;;5206809;28;20025;-70
2023/01/16 03:12:35;;;;;;;12.15;7.03;;;8.30;99.90;;;;;;5208002;28;20034;-70
2023/01/16 03:15:27;;;;;;;8.88;5.72;;;8.20;99.90;;;;;;5207614;28;20024;-78
2023/01/16 03:18:09;;;;;;;14.68;7.10;;;8.20;99.90;;;;;;5207934;28;20034;-69
2023/01/16 03:20:53;;;;;;;13.45;6.40;;;7.80;99.90;;;;;;5207774;28;20031;-76
2023/01/16 03:23:33;;;;;;;12.05;6.90;;;7.80;99.90;;;;;;5207745;28;20033;-69
2023/01/16 03:26:14;;;;;;;15.37;6.60;;;8.00;99.90;;;;;;5207725;28;20037;-69
2023/01/16 03:29:22;;;;;;;14.65;7.22;;;8.10;99.90;;;;;;5207774;28;20461;-69
2023/01/16 03:32:23;;;;;;;10.07;6.85;;;8.10;99.90;;;;;;5207492;28;20485;-69
2023/01/16 03:35:00;;;;;;;10.88;6.30;;;8.30;99.90;;;;;;5209144;28;20132;-70
2023/01/16 03:37:54;;;;;;;16.63;6.30;;;8.80;99.90;;;;;;5205731;28;20040;-70
2023/01/16 03:40:29;;;;;;;7.47;5.88;;;8.50;99.90;;;;;;5207540;28;20183;-70
2023/01/16 03:43:10;;;;;;;9.63;7.00;;;8.20;99.90;;;;;;5207814;28;20489;-75
2023/01/16 03:45:52;;;;;;;13.73;6.60;;;8.30;99.90;;;;;;5207083;28;20057;-70
2023/01/16 03:48:34;;;;;;;14.18;6.10;;;8.00;99.90;;;;;;5207315;28;20040;-69
2023/01/16 03:51:08;;;;;;;11.55;7.32;;;8.70;99.90;;;;;;5207125;28;20029;-71
2023/01/16 03:53:46;;;;;;;17.52;6.95;;;8.50;99.90;;;;;;5207167;28;20096;-69
2023/01/16 03:56:23;;;;;;;17.17;7.93;;;8.70;99.90;;;;;;5207443;28;20029;-70
2023/01/16 03:58:54;;;;;;;12.80;7.25;;;8.40;99.90;;;;;;5207063;28;20025;-69
2023/01/16 04:01:47;;;;;;;12.18;6.43;;;8.10;99.90;;;;;;5206997;28;20025;-70
2023/01/16 04:04:29;;;;;;;14.23;6.63;;;7.90;99.90;;;;;;5206887;28;20803;-69
2023/01/16 04:07:09;;;;;;;13.77;7.70;;;7.90;99.90;;;;;;5205725;28;20029;-69
2023/01/16 04:09:57;;;;;;;14.18;6.53;;;8.10;99.90;;;;;;5206276;28;20032;-70
2023/01/16 04:12:35;;;;;;;11.38;7.05;;;8.20;99.90;;;;;;5212016;28;20113;-73
2023/01/16 04:15:08;;;;;;;8.75;5.28;;;8.40;99.90;;;;;;5221764;28;20036;-75
2023/01/16 04:17:39;;;;;;;10.55;6.95;;;8.70;99.90;;;;;;5226812;28;20017;-69
2023/01/16 04:20:11;;;;;;;8.18;6.18;;;8.90;99.90;;;;;;5214256;28;20029;-71
2023/01/16 04:22:48;;;;;;;11.02;6.60;;;8.80;99.90;;;;;;5216055;28;20017;-74
2023/01/16 04:25:20;;;;;;;13.23;5.88;;;8.20;99.90;;;;;;5216435;28;20031;-78
2023/01/16 04:27:51;;;;;;;9.75;6.63;;;8.20;99.90;;;;;;5217477;28;20087;-69
2023/01/16 04:30:22;;;;;;;10.48;6.80;;;7.90;99.90;;;;;;5215192;28;20017;-69
2023/01/16 04:32:53;;;;;;;7.78;6.03;;;7.60;99.90;;;;;;5214751;28;20381;-72
2023/01/16 04:35:23;;;;;;;12.45;6.13;;;7.70;99.90;;;;;;5215188;28;20036;-72
2023/01/16 04:37:54;;;;;;;19.25;8.02;;;8.00;99.90;;;;;;5215208;28;20021;-70
2023/01/16 04:40:25;;;;;;;15.60;7.32;;;8.00;99.90;;;;;;5216311;28;20033;-71
2023/01/16 04:42:56;;;;;;;9.82;7.45;;;7.90;99.90;;;;;;5213229;28;20024;-70
2023/01/16 04:45:27;;;;;;;12.27;6.32;;;8.50;99.90;;;;;;5215473;28;20057;-72
2023/01/16 04:47:58;;;;;;;10.30;6.20;;;8.50;99.90;;;;;;5215122;28;20018;-71
2023/01/16 04:50:29;;;;;;;14.25;6.28;;;8.20;99.90;;;;;;5214472;28;20101;-69
2023/01/16 04:53:00;;;;;;;11.82;7.00;;;7.80;99.90;;;;;;5215285;28;20163;-73
2023/01/16 04:55:31;;;;;;;12.38;6.45;;;8.30;99.90;;;;;;5219396;28;20025;-77
2023/01/16 04:58:02;;;;;;;17.83;6.63;;;8.40;99.90;;;;;;5213320;28;20456;-78
2023/01/16 05:00:33;;;;;;;14.45;6.35;;;8.40;99.90;;;;;;5216756;28;20024;-69
2023/01/16 05:03:03;;;;;;;9.60;6.75;;;8.10;99.90;;;;;;5226565;28;20036;-70
2023/01/16 05:05:34;;;;;;;10.15;6.40;;;8.10;99.90;;;;;;5223927;28;20063;-70
2023/01/16 05:08:17;;;;;;;9.23;7.88;;;7.80;99.90;;;;;;5216139;28;20096;-70
2023/01/16 05:10:48;;;;;;;15.13;6.13;;;8.30;99.90;;;;;;5216110;28;20052;-71
2023/01/16 05:13:18;;;;;;;14.10;5.93;;;8.60;99.90;;;;;;5216011;28;20059;-70
2023/01/16 05:15:49;;;;;;;9.38;5.85;;;8.40;99.90;;;;;;5214665;28;20041;-69
2023/01/16 05:18:20;;;;;;;13.88;6.15;;;8.00;99.90;;;;;;5206614;28;20029;-69
2023/01/16 05:20:51;;;;;;;14.07;7.88;;;7.90;99.90;;;;;;5205278;28;20056;-70
2023/01/16 05:23:22;;;;;;;15.20;7.47;;;8.50;99.90;;;;;;5204999;28;20103;-69
2023/01/16 05:25:53;;;;;;;42.65;16.25;;;8.00;99.90;;;;;;5205538;28;20048;-69
2023/01/16 05:28:24;;;;;;;57.78;18.45;;;7.40;99.90;;;;;;5205469;28;20032;-69
2023/01/16 05:30:55;;;;;;;37.38;15.73;;;7.50;99.90;;;;;;5205432;28;20359;-69
2023/01/16 05:33:26;;;;;;;38.00;15.25;;;7.60;99.90;;;;;;5205315;28;20021;-69
2023/01/16 05:35:57;;;;;;;37.13;16.42;;;7.70;99.90;;;;;;5205347;28;20537;-69
2023/01/16 05:38:28;;;;;;;32.00;15.00;;;7.70;99.90;;;;;;5205286;28;20093;-69
2023/01/16 05:40:59;;;;;;;30.48;14.90;;;8.10;99.90;;;;;;5205257;28;20091;-69
2023/01/16 05:43:31;;;;;;;31.60;13.80;;;8.20;99.90;;;;;;5204987;28;20033;-69
2023/01/16 05:46:03;;;;;;;25.60;12.43;;;8.40;99.90;;;;;;5205036;28;20068;-69
2023/01/16 05:48:35;;;;;;;21.50;11.02;;;8.40;99.90;;;;;;5205233;28;20021;-70
2023/01/16 05:51:06;;;;;;;23.05;12.23;;;8.10;99.90;;;;;;5205354;28;20468;-69
2023/01/16 05:53:38;;;;;;;34.50;13.45;;;8.40;99.90;;;;;;5205294;28;20135;-70
2023/01/16 05:56:11;;;;;;;30.17;14.10;;;8.00;99.90;;;;;;5204425;28;20424;-69
2023/01/16 05:58:41;;;;;;;18.67;10.85;;;7.50;99.90;;;;;;5205251;28;20028;-69
2023/01/16 06:01:12;;;;;;;13.85;8.77;;;7.70;99.90;;;;;;5207354;28;20548;-69
2023/01/16 06:03:43;;;;;;;14.52;9.13;;;7.30;99.90;;;;;;5204957;28;20065;-70
2023/01/16 06:06:14;;;;;;;14.43;8.32;;;7.30;99.90;;;;;;5212497;28;20420;-69
2023/01/16 06:08:46;;;;;;;15.93;8.23;;;7.30;99.90;;;;;;5218244;28;20028;-72
2023/01/16 06:11:17;;;;;;;14.80;9.88;;;7.50;99.90;;;;;;5225586;28;20056;-69
2023/01/16 06:13:48;;;;;;;25.65;11.00;;;7.60;99.90;;;;;;5225454;28;20049;-69
2023/01/16 06:16:19;;;;;;;23.33;11.85;;;7.80;99.90;;;;;;5225298;28;20029;-69
2023/01/16 06:18:50;;;;;;;22.70;10.07;;;7.80;99.90;;;;;;5209899;28;20017;-69
2023/01/16 06:21:21;;;;;;;23.70;13.50;;;7.90;99.90;;;;;;5204821;28;20436;-69
2023/01/16 06:23:51;;;;;;;27.23;14.40;;;7.80;99.90;;;;;;5204739;28;20037;-69
2023/01/16 06:26:22;;;;;;;18.90;11.02;;;8.40;99.90;;;;;;5204982;28;20104;-70
2023/01/16 06:28:55;;;;;;;21.40;11.18;;;8.70;99.90;;;;;;5204768;28;20380;-69
2023/01/16 06:31:26;;;;;;;22.50;13.27;;;8.70;99.90;;;;;;5204799;28;20033;-69
2023/01/16 06:33:57;;;;;;;20.45;10.95;;;8.80;99.90;;;;;;5207265;28;20029;-69
2023/01/16 06:36:28;;;;;;;16.25;10.10;;;9.00;99.90;;;;;;5208630;28;20039;-69
2023/01/16 06:38:59;;;;;;;19.35;10.25;;;9.00;99.90;;;;;;5208582;28;20076;-69
2023/01/16 06:41:30;;;;;;;24.15;13.27;;;8.50;99.90;;;;;;5208503;28;20112;-69
2023/01/16 06:44:01;;;;;;;22.23;13.05;;;8.50;99.90;;;;;;5208370;28;20108;-69
2023/01/16 06:46:32;;;;;;;23.10;10.77;;;8.70;99.90;;;;;;5208156;28;20456;-70
2023/01/16 06:49:03;;;;;;;19.00;11.38;;;9.00;99.90;;;;;;5208455;28;20014;-69
2023/01/16 06:51:33;;;;;;;19.88;10.55;;;9.20;99.90;;;;;;5208409;28;20029;-70
2023/01/16 06:54:05;;;;;;;23.58;10.90;;;9.20;99.90;;;;;;5208433;28;20075;-69
2023/01/16 06:56:35;;;;;;;17.27;10.77;;;9.20;99.90;;;;;;5208708;28;20521;-69
2023/01/16 06:59:06;;;;;;;20.55;12.25;;;8.90;99.90;;;;;;5208372;28;20025;-69
2023/01/16 07:01:37;;;;;;;19.25;12.43;;;9.30;99.90;;;;;;5209309;28;20026;-69
2023/01/16 07:04:09;;;;;;;22.48;12.30;;;9.60;99.90;;;;;;5229144;28;20043;-69
2023/01/16 07:06:42;;;;;;;29.55;13.38;;;9.70;99.90;;;;;;5229198;28;20520;-69
2023/01/16 07:09:13;;;;;;;25.80;14.63;;;9.80;99.90;;;;;;5228824;28;20025;-69
2023/01/16 07:11:44;;;;;;;31.38;15.27;;;9.40;99.90;;;;;;5228729;28;20021;-72
2023/01/16 07:22:45;;;;;;;31.33;18.25;;;9.80;99.90;;;;;;5207868;28;20028;-78
2023/01/16 07:25:21;;;;;;;31.77;16.50;;;9.50;99.90;;;;;;5207656;28;20033;-77
2023/01/16 07:27:52;;;;;;;30.40;15.95;;;9.90;99.90;;;;;;5207811;28;20111;-76
2023/01/16 07:30:24;;;;;;;30.88;17.98;;;9.90;99.90;;;;;;5207641;28;20032;-69
2023/01/16 07:32:54;;;;;;;35.60;18.25;;;10.10;99.90;;;;;;5207704;28;20033;-69
2023/01/16 07:35:25;;;;;;;32.90;18.17;;;10.40;99.90;;;;;;5207409;28;20490;-69
2023/01/16 07:37:56;;;;;;;40.17;22.00;;;10.60;99.90;;;;;;5207433;28;20128;-69
2023/01/16 07:40:27;;;;;;;40.63;20.60;;;9.20;99.90;;;;;;5207186;28;20473;-69
2023/01/16 07:42:58;;;;;;;41.75;20.20;;;10.10;99.90;;;;;;5207255;28;20025;-70
2023/01/16 07:45:29;;;;;;;40.20;20.67;;;10.20;99.90;;;;;;5206042;28;20061;-70
2023/01/16 07:48:00;;;;;;;37.78;20.92;;;10.30;99.90;;;;;;5207244;28;20072;-70
2023/01/16 07:50:31;;;;;;;39.25;21.60;;;10.30;99.90;;;;;;5207195;28;20028;-70
2023/01/16 07:53:02;;;;;;;36.75;20.23;;;10.40;99.90;;;;;;5206499;28;20025;-70
2023/01/16 07:55:33;;;;;;;41.38;21.08;;;10.40;99.90;;;;;;5207108;28;20028;-69
2023/01/16 07:58:03;;;;;;;42.53;21.42;;;10.60;99.90;;;;;;5207077;28;20143;-70
2023/01/16 08:00:34;;;;;;;38.03;20.70;;;10.60;99.90;;;;;;5206976;28;20014;-69
2023/01/16 08:03:05;;;;;;;40.50;22.00;;;10.50;99.90;;;;;;5206972;28;20044;-71
2023/01/16 08:05:36;;;;;;;42.55;23.23;;;10.70;99.90;;;;;;5205546;28;20049;-69
2023/01/16 08:08:07;;;;;;;41.85;22.73;;;10.80;99.90;;;;;;5206946;28;20025;-70
2023/01/16 08:10:38;;;;;;;34.28;20.50;;;10.60;99.90;;;;;;5205924;28;20064;-70
2023/01/16 08:13:09;;;;;;;43.03;22.05;;;10.20;99.90;;;;;;5207168;28;20029;-70
2023/01/16 08:15:41;;;;;;;39.33;20.73;;;10.60;99.90;;;;;;5206713;28;20508;-70
2023/01/16 08:18:13;;;;;;;39.10;21.15;;;10.70;99.90;;;;;;5206818;28;20013;-70
2023/01/16 08:20:44;;;;;;;38.08;22.70;;;10.70;99.90;;;;;;5206642;28;20461;-70
2023/01/16 08:23:15;;;;;;;41.47;21.77;;;10.30;99.90;;;;;;5206615;28;20032;-70
2023/01/16 08:25:50;;;;;;;37.92;21.40;;;10.80;99.90;;;;;;5206567;28;20478;-70
2023/01/16 08:28:21;;;;;;;45.13;25.05;;;10.70;99.90;;;;;;5206470;28;20126;-70
2023/01/16 08:30:51;;;;;;;44.17;20.75;;;10.50;99.90;;;;;;5206570;28;20049;-70
2023/01/16 08:33:22;;;;;;;35.33;21.48;;;10.80;99.90;;;;;;5206312;28;20104;-69
2023/01/16 08:35:56;;;;;;;41.67;22.52;;;10.70;99.90;;;;;;5205117;28;20025;-69
2023/01/16 08:38:27;;;;;;;36.22;20.90;;;10.30;99.90;;;;;;5206494;28;20473;-70
2023/01/16 08:40:58;;;;;;;42.88;22.13;;;10.60;99.90;;;;;;5206530;28;20032;-70
2023/01/16 08:52:04;;;;;;;42.22;20.90;;;10.60;99.90;;;;;;5206341;28;20032;-70
2023/01/16 08:54:35;;;;;;;41.75;27.85;;;10.70;99.90;;;;;;5206225;28;20489;-70
2023/01/16 08:57:06;;;;;;;31.77;19.80;;;10.80;99.90;;;;;;5206115;28;20053;-70
2023/01/16 08:59:37;;;;;;;38.08;20.58;;;11.20;99.90;;;;;;5207721;28;20017;-71
2023/01/16 09:02:09;;;;;;;31.48;20.10;;;11.00;99.90;;;;;;5223474;28;20021;-72
2023/01/16 09:04:41;;;;;;;32.75;18.65;;;11.10;99.90;;;;;;5220972;28;20056;-70
2023/01/16 09:07:12;;;;;;;32.78;19.70;;;11.40;99.90;;;;;;5226414;28;20449;-71
2023/01/16 09:09:43;;;;;;;30.58;18.02;;;11.40;99.90;;;;;;5226374;28;20029;-71
2023/01/16 09:15:04;;;;;;;35.90;19.55;;;11.50;99.90;;;;;;5226648;28;20075;-70
2023/01/16 09:17:35;;;;;;;33.25;18.05;;;11.40;99.90;;;;;;5226615;28;20056;-70
2023/01/16 09:20:06;;;;;;;32.28;17.92;;;11.70;99.90;;;;;;5226329;28;20067;-70
2023/01/16 09:22:37;;;;;;;36.03;20.02;;;11.60;99.90;;;;;;5226251;28;20025;-70
2023/01/16 09:25:10;;;;;;;33.28;18.67;;;11.60;99.90;;;;;;5225870;28;20182;-70
2023/01/16 09:27:40;;;;;;;36.85;18.10;;;11.30;99.90;;;;;;5226136;28;20034;-70
2023/01/16 09:30:12;;;;;;;28.92;17.92;;;11.50;99.90;;;;;;5226355;28;20049;-69
2023/01/16 09:32:45;;;;;;;33.33;19.40;;;11.70;99.90;;;;;;5226155;28;20456;-69
2023/01/16 09:35:16;;;;;;;34.63;19.08;;;11.50;99.90;;;;;;5225958;28;20063;-69
2023/01/16 09:37:46;;;;;;;31.95;18.88;;;11.80;99.90;;;;;;5225876;28;20131;-70
2023/01/16 09:40:20;;;;;;;32.90;18.25;;;11.80;99.90;;;;;;5225741;28;20106;-69
2023/01/16 09:43:36;;;;;;;29.45;16.77;;;12.00;99.90;;;;;;5225755;28;20029;-69
2023/01/16 09:46:09;;;;;;;30.52;17.10;;;12.20;99.90;;;;;;5225595;28;20053;-70
2023/01/16 09:48:53;;;;;;;30.90;19.50;;;12.10;99.90;;;;;;5225851;28;20098;-70
2023/01/16 09:51:39;;;;;;;25.70;16.45;;;11.80;99.90;;;;;;5225816;28;20056;-69
2023/01/16 10:00:05;;;;;;;25.88;14.95;;;11.40;99.90;;;;;;5225860;28;20147;-69
2023/01/16 10:02:36;;;;;;;26.17;14.98;;;11.40;99.90;;;;;;5225697;28;20416;-69
2023/01/16 10:05:09;;;;;;;31.25;17.63;;;11.30;99.90;;;;;;5225649;28;20090;-69
2023/01/16 10:08:17;;;;;;;36.13;18.77;;;11.00;99.90;;;;;;5226122;28;20060;-70
2023/01/16 10:11:13;;;;;;;34.53;19.80;;;11.40;99.90;;;;;;5229839;28;20487;-69
2023/01/16 10:13:52;;;;;;;31.25;19.17;;;11.40;99.90;;;;;;5229453;28;20039;-70
2023/01/16 10:16:55;;;;;;;35.15;19.75;;;11.30;99.90;;;;;;5229553;28;20017;-69
2023/01/16 10:19:39;;;;;;;33.00;18.17;;;11.50;99.90;;;;;;5224763;28;20094;-70
2023/01/16 10:22:28;;;;;;;34.45;20.20;;;11.30;99.90;;;;;;5228902;28;20055;-69
2023/01/16 10:25:32;;;;;;;33.13;20.27;;;11.20;99.90;;;;;;5229068;28;20931;-69
2023/01/16 10:28:38;;;;;;;35.63;20.80;;;11.20;99.90;;;;;;5217313;28;20401;-69
2023/01/16 10:31:16;;;;;;;37.60;19.77;;;10.90;99.90;;;;;;5229971;28;20380;-70
2023/01/16 10:34:11;;;;;;;34.70;19.25;;;11.10;99.90;;;;;;5229944;28;20017;-69
2023/01/16 10:36:46;;;;;;;37.72;19.55;;;11.20;99.90;;;;;;5229659;28;20078;-70
2023/01/16 10:39:20;;;;;;;36.00;20.13;;;11.10;99.90;;;;;;5229500;28;20025;-69
2023/01/16 10:50:34;;;;;;;39.85;23.35;;;10.90;99.90;;;;;;5229715;28;20351;-70
2023/01/16 10:53:08;;;;;;;38.70;20.75;;;10.80;99.90;;;;;;5229135;28;20029;-70
2023/01/16 10:55:45;;;;;;;42.92;20.92;;;10.90;99.90;;;;;;5221447;28;20017;-69
2023/01/16 10:58:20;;;;;;;40.00;22.58;;;11.10;99.90;;;;;;5208403;28;20446;-69
2023/01/16 11:01:12;;;;;;;38.67;21.40;;;10.60;99.90;;;;;;5208259;28;20025;-69
2023/01/16 11:03:50;;;;;;;34.88;21.42;;;10.70;99.90;;;;;;5224336;28;20041;-70
2023/01/16 11:06:23;;;;;;;31.77;20.63;;;10.70;99.90;;;;;;5228713;28;20029;-70
2023/01/16 11:09:06;;;;;;;30.02;20.42;;;11.00;99.90;;;;;;5228670;28;20086;-70
2023/01/16 11:20:19;;;;;;;36.20;19.83;;;10.90;99.90;;;;;;5206904;28;20036;-69
2023/01/16 11:22:58;;;;;;;33.60;19.25;;;11.30;99.90;;;;;;5207878;28;20493;-70
2023/01/16 11:25:29;;;;;;;35.67;20.85;;;11.30;99.90;;;;;;5206371;28;20381;-70
2023/01/16 11:28:03;;;;;;;37.63;19.73;;;11.90;99.90;;;;;;5207772;28;20064;-70
2023/01/16 11:30:40;;;;;;;31.63;18.70;;;12.50;99.90;;;;;;5207827;28;20495;-70
2023/01/16 11:33:27;;;;;;;34.50;19.33;;;12.70;99.90;;;;;;5208044;28;20092;-70
2023/01/16 11:36:00;;;;;;;33.88;18.33;;;12.50;99.90;;;;;;5210638;28;20044;-70
2023/01/16 11:38:35;;;;;;;33.65;22.67;;;12.40;99.90;;;;;;5207546;28;20440;-70
2023/01/16 11:41:10;;;;;;;33.55;18.95;;;12.30;99.90;;;;;;5207506;28;20036;-70
2023/01/16 11:46:36;;;;;;;31.08;18.30;;;12.90;99.90;;;;;;5207150;28;20068;-72
2023/01/16 11:49:26;;;;;;;31.05;16.98;;;12.60;99.90;;;;;;5219442;28;20068;-71
2023/01/16 11:52:03;;;;;;;26.85;15.82;;;13.00;99.90;;;;;;5226855;28;20085;-69
2023/01/16 11:54:34;;;;;;;32.80;18.92;;;12.90;99.90;;;;;;5227869;28;20450;-69
2023/01/16 11:57:28;;;;;;;24.17;16.17;;;12.10;99.90;;;;;;5209477;28;20100;-69
2023/01/16 12:00:44;;;;;;;26.45;15.68;;;12.50;99.90;;;;;;5207277;28;20021;-69
2023/01/16 12:03:45;;;;;;;31.35;16.63;;;12.60;99.90;;;;;;5163227;28;20049;-69
2023/01/16 12:06:41;;;;;;;30.27;18.42;;;13.10;99.90;;;;;;5207383;28;20036;-69
2023/01/16 12:09:43;;;;;;;30.70;17.10;;;12.60;99.90;;;;;;5207119;28;20026;-70
2023/01/16 12:15:35;;;;;;;28.45;16.25;;;13.50;99.90;;;;;;5206995;28;20109;-70
2023/01/16 12:18:12;;;;;;;30.17;18.48;;;13.20;99.90;;;;;;5206885;28;20060;-69
2023/01/16 12:21:03;;;;;;;28.58;16.63;;;12.80;99.90;;;;;;5209276;28;20040;-70
2023/01/16 12:23:40;;;;;;;27.15;17.17;;;13.70;99.90;;;;;;5227132;28;20029;-69
2023/01/16 12:26:39;;;;;;;27.05;15.35;;;13.30;99.90;;;;;;5225869;28;20028;-70
2023/01/16 12:29:21;;;;;;;27.95;15.02;;;13.10;99.90;;;;;;5227171;28;20043;-70
2023/01/16 12:32:14;;;;;;;24.52;15.23;;;12.80;99.90;;;;;;5225562;28;20468;-69
2023/01/16 12:35:05;;;;;;;28.52;15.52;;;12.80;99.90;;;;;;5227209;28;20472;-69
2023/01/16 12:37:55;;;;;;;24.55;13.93;;;12.90;99.90;;;;;;5227093;28;20375;-70
2023/01/16 12:40:49;;;;;;;22.95;13.65;;;12.90;99.90;;;;;;5227119;28;20033;-69
2023/01/16 12:43:38;;;;;;;20.27;12.75;;;13.10;99.90;;;;;;5227148;28;20032;-69
2023/01/16 12:46:36;;;;;;;25.38;13.98;;;13.10;99.90;;;;;;5225425;28;20053;-72
2023/01/16 12:49:31;;;;;;;24.25;14.65;;;13.20;99.90;;;;;;5223323;28;20044;-74
2023/01/16 12:52:24;;;;;;;20.38;14.10;;;13.70;99.90;;;;;;5225476;28;20075;-75
2023/01/16 12:55:02;;;;;;;19.38;13.23;;;14.00;99.90;;;;;;5226667;28;20043;-72
2023/01/16 12:57:54;;;;;;;23.10;13.98;;;13.40;99.90;;;;;;5226717;28;20441;-73
2023/01/16 13:00:33;;;;;;;20.70;13.60;;;13.60;99.90;;;;;;5226363;28;20091;-73
2023/01/16 13:03:14;;;;;;;28.83;15.13;;;13.50;99.90;;;;;;5226556;28;20040;-70
2023/01/16 13:05:47;;;;;;;24.38;12.40;;;13.50;99.90;;;;;;5226458;28;20128;-69
2023/01/16 13:08:59;;;;;;;22.63;15.13;;;13.50;99.90;;;;;;5226589;28;20492;-69
2023/01/16 13:14:26;;;;;;;26.63;15.13;;;13.80;99.90;;;;;;5226659;28;20043;-73
2023/01/16 13:17:06;;;;;;;23.75;14.93;;;13.20;99.90;;;;;;5226525;28;20058;-71
2023/01/16 13:19:40;;;;;;;28.58;15.13;;;13.60;99.90;;;;;;5226780;28;20796;-73
2023/01/16 13:22:19;;;;;;;24.05;14.88;;;14.20;99.90;;;;;;5226646;28;20028;-74
2023/01/16 13:24:57;;;;;;;25.27;20.65;;;15.10;99.90;;;;;;5226159;28;20523;-70
2023/01/16 13:27:47;;;;;;;27.55;15.32;;;16.50;99.90;;;;;;5226248;28;20492;-69
2023/01/16 13:30:19;;;;;;;22.90;14.13;;;17.90;99.90;;;;;;5226232;28;20028;-70
2023/01/16 13:33:15;;;;;;;22.35;12.68;;;17.90;99.90;;;;;;5226015;28;20029;-71
2023/01/16 13:36:27;;;;;;;21.35;14.20;;;17.30;99.90;;;;;;5226086;28;20169;-70
2023/01/16 13:39:16;;;;;;;23.48;13.52;;;18.70;99.90;;;;;;5225971;28;20052;-74
2023/01/16 13:41:50;;;;;;;26.75;22.67;;;17.90;99.90;;;;;;5224436;28;20477;-70
2023/01/16 13:47:24;;;;;;;24.98;20.60;;;14.10;99.90;;;;;;5225843;28;20139;-72
2023/01/16 13:50:07;;;;;;;18.90;13.40;;;13.50;99.90;;;;;;5225875;28;20037;-70
2023/01/16 13:52:42;;;;;;;20.70;13.05;;;13.50;99.90;;;;;;5226119;28;20423;-69
2023/01/16 13:55:29;;;;;;;21.13;13.20;;;12.70;99.90;;;;;;5226207;28;20167;-71
2023/01/16 13:58:15;;;;;;;18.38;12.30;;;13.10;99.90;;;;;;5226105;28;20591;-71
2023/01/16 14:01:02;;;;;;;22.35;12.48;;;13.00;99.90;;;;;;5218873;28;20109;-71
2023/01/16 14:03:35;;;;;;;24.80;14.38;;;12.50;99.90;;;;;;5216745;28;20033;-71
2023/01/16 14:06:12;;;;;;;23.50;14.15;;;12.50;99.90;;;;;;5214336;28;20481;-71
2023/01/16 14:09:14;;;;;;;23.55;15.88;;;12.00;99.90;;;;;;5213669;28;20036;-71
2023/01/16 14:12:01;;;;;;;23.33;14.70;;;11.70;99.90;;;;;;5198179;28;20114;-70
2023/01/16 14:17:55;;;;;;;23.30;15.60;;;11.50;99.90;;;;;;5202418;28;20137;-79
2023/01/16 14:20:50;;;;;;;25.63;15.05;;;11.20;99.90;;;;;;5202911;28;20436;-75
2023/01/16 14:26:40;;;;;;;24.48;15.00;;;11.30;99.90;;;;;;5202989;28;20072;-72
2023/01/16 14:29:24;;;;;;;26.33;15.18;;;11.20;99.90;;;;;;5188738;28;20046;-71
2023/01/16 14:32:17;;;;;;;27.48;16.20;;;11.30;99.90;;;;;;5202606;28;20041;-80
2023/01/16 14:34:57;;;;;;;26.13;15.18;;;10.90;99.90;;;;;;5202583;28;20041;-77